sensor_id;sensor_type;location;lat;lon;timestamp;P1;durP1;ratioP1;P2;durP2;ratioP2
31734;SDS011;18313;48.518;9.124;2022-12-24T00:00:12;3.20;;;1.10;;
31734;SDS011;18313;48.518;9.124;2022-12-24T00:02:39;2.67;;;0.90;;
31734;SDS011;18313;48.518;9.124;2022-12-24T00:05:07;5.55;;;0.90;;
31734;SDS011;18313;48.518;9.124;2022-12-24T00:07:36;4.03;;;0.88;;
31734;SDS011;18313;48.518;9.124;2022-12-24T00:10:03;3.90;;;0.90;;
31734;SDS011;18313;48.518;9.124;2022-12-24T00:12:31;3.90;;;1.17;;
31734;SDS011;18313;48.518;9.124;2022-12-24T00:14:58;2.65;;;0.95;;
31734;SDS011;18313;48.518;9.124;2022-12-24T00:17:26;5.68;;;1.55;;
31734;SDS011;18313;48.518;9.124;2022-12-24T00:19:53;4.18;;;1.00;;
31734;SDS011;18313;48.518;9.124;2022-12-24T00:22:20;3.58;;;0.90;;
31734;SDS011;18313;48.518;9.124;2022-12-24T00:24:47;6.47;;;1.02;;
31734;SDS011;18313;48.518;9.124;2022-12-24T00:27:14;4.25;;;1.42;;
31734;SDS011;18313;48.518;9.124;2022-12-24T00:29:42;2.00;;;1.02;;
31734;SDS011;18313;48.518;9.124;2022-12-24T00:32:09;4.57;;;1.20;;
31734;SDS011;18313;48.518;9.124;2022-12-24T00:34:36;6.38;;;1.20;;
31734;SDS011;18313;48.518;9.124;2022-12-24T00:37:04;9.07;;;1.15;;
31734;SDS011;18313;48.518;9.124;2022-12-24T00:39:32;5.82;;;1.00;;
31734;SDS011;18313;48.518;9.124;2022-12-24T00:41:59;3.78;;;1.00;;
31734;SDS011;18313;48.518;9.124;2022-12-24T00:44:26;6.53;;;1.50;;
31734;SDS011;18313;48.518;9.124;2022-12-24T00:46:53;3.20;;;0.90;;
31734;SDS011;18313;48.518;9.124;2022-12-24T00:49:21;4.93;;;1.05;;
31734;SDS011;18313;48.518;9.124;2022-12-24T00:51:48;8.18;;;1.30;;
31734;SDS011;18313;48.518;9.124;2022-12-24T00:54:15;5.50;;;1.17;;
31734;SDS011;18313;48.518;9.124;2022-12-24T00:56:42;7.78;;;1.45;;
31734;SDS011;18313;48.518;9.124;2022-12-24T00:59:10;5.05;;;1.17;;
31734;SDS011;18313;48.518;9.124;2022-12-24T01:01:37;7.22;;;1.27;;
31734;SDS011;18313;48.518;9.124;2022-12-24T01:04:05;6.47;;;1.13;;
31734;SDS011;18313;48.518;9.124;2022-12-24T01:06:51;7.15;;;1.23;;
31734;SDS011;18313;48.518;9.124;2022-12-24T01:09:18;7.60;;;1.30;;
31734;SDS011;18313;48.518;9.124;2022-12-24T01:11:45;4.82;;;1.30;;
31734;SDS011;18313;48.518;9.124;2022-12-24T01:14:12;4.60;;;1.02;;
31734;SDS011;18313;48.518;9.124;2022-12-24T01:16:39;5.65;;;1.35;;
31734;SDS011;18313;48.518;9.124;2022-12-24T01:19:06;8.43;;;1.20;;
31734;SDS011;18313;48.518;9.124;2022-12-24T01:21:33;6.28;;;1.20;;
31734;SDS011;18313;48.518;9.124;2022-12-24T01:24:00;5.90;;;1.23;;
31734;SDS011;18313;48.518;9.124;2022-12-24T01:26:28;6.15;;;1.23;;
31734;SDS011;18313;48.518;9.124;2022-12-24T01:28:55;7.43;;;1.20;;
31734;SDS011;18313;48.518;9.124;2022-12-24T01:31:23;7.35;;;1.23;;
31734;SDS011;18313;48.518;9.124;2022-12-24T01:33:50;7.22;;;1.58;;
31734;SDS011;18313;48.518;9.124;2022-12-24T01:36:17;8.95;;;1.48;;
31734;SDS011;18313;48.518;9.124;2022-12-24T01:38:44;7.90;;;1.70;;
31734;SDS011;18313;48.518;9.124;2022-12-24T01:41:19;5.65;;;1.10;;
31734;SDS011;18313;48.518;9.124;2022-12-24T01:44:23;5.75;;;1.23;;
31734;SDS011;18313;48.518;9.124;2022-12-24T01:47:06;8.10;;;1.40;;
31734;SDS011;18313;48.518;9.124;2022-12-24T01:49:36;6.80;;;1.52;;
31734;SDS011;18313;48.518;9.124;2022-12-24T01:52:11;6.22;;;1.63;;
31734;SDS011;18313;48.518;9.124;2022-12-24T01:54:43;11.02;;;1.52;;
31734;SDS011;18313;48.518;9.124;2022-12-24T01:57:17;7.90;;;1.30;;
31734;SDS011;18313;48.518;9.124;2022-12-24T01:59:48;10.18;;;1.52;;
31734;SDS011;18313;48.518;9.124;2022-12-24T02:02:21;5.38;;;1.35;;
31734;SDS011;18313;48.518;9.124;2022-12-24T02:04:50;5.63;;;1.27;;
31734;SDS011;18313;48.518;9.124;2022-12-24T02:07:22;5.78;;;1.20;;
31734;SDS011;18313;48.518;9.124;2022-12-24T02:09:50;6.68;;;1.30;;
31734;SDS011;18313;48.518;9.124;2022-12-24T02:12:22;7.10;;;1.50;;
31734;SDS011;18313;48.518;9.124;2022-12-24T02:14:51;4.85;;;1.33;;
31734;SDS011;18313;48.518;9.124;2022-12-24T02:17:30;7.57;;;1.58;;
31734;SDS011;18313;48.518;9.124;2022-12-24T02:25:49;7.82;;;1.40;;
31734;SDS011;18313;48.518;9.124;2022-12-24T02:28:29;8.48;;;1.30;;
31734;SDS011;18313;48.518;9.124;2022-12-24T02:31:17;6.05;;;1.02;;
31734;SDS011;18313;48.518;9.124;2022-12-24T02:34:05;6.43;;;1.20;;
31734;SDS011;18313;48.518;9.124;2022-12-24T02:36:42;7.88;;;1.80;;
31734;SDS011;18313;48.518;9.124;2022-12-24T02:39:53;5.57;;;1.33;;
31734;SDS011;18313;48.518;9.124;2022-12-24T02:42:22;7.72;;;1.40;;
31734;SDS011;18313;48.518;9.124;2022-12-24T02:45:05;5.05;;;1.17;;
31734;SDS011;18313;48.518;9.124;2022-12-24T02:47:35;5.95;;;1.35;;
31734;SDS011;18313;48.518;9.124;2022-12-24T02:50:04;4.80;;;1.20;;
31734;SDS011;18313;48.518;9.124;2022-12-24T02:52:37;4.82;;;1.35;;
31734;SDS011;18313;48.518;9.124;2022-12-24T02:55:14;7.53;;;1.20;;
31734;SDS011;18313;48.518;9.124;2022-12-24T03:00:42;4.88;;;1.20;;
31734;SDS011;18313;48.518;9.124;2022-12-24T03:03:26;3.75;;;1.00;;
31734;SDS011;18313;48.518;9.124;2022-12-24T03:06:08;8.52;;;1.85;;
31734;SDS011;18313;48.518;9.124;2022-12-24T03:08:55;7.53;;;1.73;;
31734;SDS011;18313;48.518;9.124;2022-12-24T03:11:27;6.43;;;2.10;;
31734;SDS011;18313;48.518;9.124;2022-12-24T03:13:54;7.78;;;1.45;;
31734;SDS011;18313;48.518;9.124;2022-12-24T03:16:26;6.25;;;1.17;;
31734;SDS011;18313;48.518;9.124;2022-12-24T03:18:54;6.15;;;1.30;;
31734;SDS011;18313;48.518;9.124;2022-12-24T03:21:35;8.20;;;1.40;;
31734;SDS011;18313;48.518;9.124;2022-12-24T03:24:05;5.95;;;1.40;;
31734;SDS011;18313;48.518;9.124;2022-12-24T03:26:32;9.93;;;1.42;;
31734;SDS011;18313;48.518;9.124;2022-12-24T03:29:00;5.47;;;1.20;;
31734;SDS011;18313;48.518;9.124;2022-12-24T03:31:40;4.32;;;1.10;;
31734;SDS011;18313;48.518;9.124;2022-12-24T03:34:09;6.75;;;1.60;;
31734;SDS011;18313;48.518;9.124;2022-12-24T03:36:37;5.35;;;1.40;;
31734;SDS011;18313;48.518;9.124;2022-12-24T03:39:04;10.95;;;1.13;;
31734;SDS011;18313;48.518;9.124;2022-12-24T03:41:32;5.97;;;1.40;;
31734;SDS011;18313;48.518;9.124;2022-12-24T03:43:59;3.95;;;1.35;;
31734;SDS011;18313;48.518;9.124;2022-12-24T03:46:26;6.60;;;1.38;;
31734;SDS011;18313;48.518;9.124;2022-12-24T03:48:53;5.70;;;1.23;;
31734;SDS011;18313;48.518;9.124;2022-12-24T03:51:21;4.30;;;1.17;;
31734;SDS011;18313;48.518;9.124;2022-12-24T03:53:53;8.05;;;1.52;;
31734;SDS011;18313;48.518;9.124;2022-12-24T03:56:21;8.82;;;1.40;;
31734;SDS011;18313;48.518;9.124;2022-12-24T03:58:49;8.82;;;1.20;;
31734;SDS011;18313;48.518;9.124;2022-12-24T04:01:16;7.88;;;1.40;;
31734;SDS011;18313;48.518;9.124;2022-12-24T04:03:44;7.22;;;1.10;;
31734;SDS011;18313;48.518;9.124;2022-12-24T04:06:12;7.07;;;1.60;;
31734;SDS011;18313;48.518;9.124;2022-12-24T04:08:43;7.22;;;1.73;;
31734;SDS011;18313;48.518;9.124;2022-12-24T04:11:11;6.50;;;1.35;;
31734;SDS011;18313;48.518;9.124;2022-12-24T04:13:39;6.05;;;1.40;;
31734;SDS011;18313;48.518;9.124;2022-12-24T04:16:07;4.65;;;2.08;;
31734;SDS011;18313;48.518;9.124;2022-12-24T04:18:37;10.50;;;1.92;;
31734;SDS011;18313;48.518;9.124;2022-12-24T04:21:06;5.55;;;1.45;;
31734;SDS011;18313;48.518;9.124;2022-12-24T04:23:35;6.82;;;1.60;;
31734;SDS011;18313;48.518;9.124;2022-12-24T04:26:04;6.93;;;1.83;;
31734;SDS011;18313;48.518;9.124;2022-12-24T04:28:33;9.10;;;1.25;;
31734;SDS011;18313;48.518;9.124;2022-12-24T04:31:02;8.63;;;1.40;;
31734;SDS011;18313;48.518;9.124;2022-12-24T04:33:31;7.35;;;1.30;;
31734;SDS011;18313;48.518;9.124;2022-12-24T04:35:59;7.35;;;1.40;;
31734;SDS011;18313;48.518;9.124;2022-12-24T04:38:27;8.70;;;1.33;;
31734;SDS011;18313;48.518;9.124;2022-12-24T04:40:59;8.35;;;1.30;;
31734;SDS011;18313;48.518;9.124;2022-12-24T04:43:27;8.50;;;1.33;;
31734;SDS011;18313;48.518;9.124;2022-12-24T04:45:55;10.63;;;1.60;;
31734;SDS011;18313;48.518;9.124;2022-12-24T04:48:22;5.35;;;1.20;;
31734;SDS011;18313;48.518;9.124;2022-12-24T04:50:50;4.90;;;1.60;;
31734;SDS011;18313;48.518;9.124;2022-12-24T04:53:17;7.57;;;1.60;;
31734;SDS011;18313;48.518;9.124;2022-12-24T04:55:44;5.20;;;1.60;;
31734;SDS011;18313;48.518;9.124;2022-12-24T04:58:12;5.72;;;1.33;;
31734;SDS011;18313;48.518;9.124;2022-12-24T05:00:39;5.28;;;1.50;;
31734;SDS011;18313;48.518;9.124;2022-12-24T05:03:07;8.05;;;1.23;;
31734;SDS011;18313;48.518;9.124;2022-12-24T05:05:34;8.35;;;1.25;;
31734;SDS011;18313;48.518;9.124;2022-12-24T05:08:02;9.15;;;1.70;;
31734;SDS011;18313;48.518;9.124;2022-12-24T05:10:29;6.88;;;1.77;;
31734;SDS011;18313;48.518;9.124;2022-12-24T05:12:56;6.82;;;1.63;;
31734;SDS011;18313;48.518;9.124;2022-12-24T05:15:23;7.70;;;2.20;;
31734;SDS011;18313;48.518;9.124;2022-12-24T05:17:51;7.85;;;1.73;;
31734;SDS011;18313;48.518;9.124;2022-12-24T05:20:18;8.20;;;1.77;;
31734;SDS011;18313;48.518;9.124;2022-12-24T05:22:45;8.18;;;1.70;;
31734;SDS011;18313;48.518;9.124;2022-12-24T05:25:32;6.55;;;1.65;;
31734;SDS011;18313;48.518;9.124;2022-12-24T05:28:21;5.90;;;1.60;;
31734;SDS011;18313;48.518;9.124;2022-12-24T05:30:49;5.88;;;1.20;;
31734;SDS011;18313;48.518;9.124;2022-12-24T05:33:16;8.70;;;1.77;;
31734;SDS011;18313;48.518;9.124;2022-12-24T05:35:43;14.27;;;1.58;;
31734;SDS011;18313;48.518;9.124;2022-12-24T05:38:10;6.45;;;1.42;;
31734;SDS011;18313;48.518;9.124;2022-12-24T05:40:37;6.70;;;1.45;;
31734;SDS011;18313;48.518;9.124;2022-12-24T05:43:04;8.95;;;1.40;;
31734;SDS011;18313;48.518;9.124;2022-12-24T05:45:31;12.18;;;2.13;;
31734;SDS011;18313;48.518;9.124;2022-12-24T05:47:58;5.65;;;1.60;;
31734;SDS011;18313;48.518;9.124;2022-12-24T05:50:26;10.55;;;1.88;;
31734;SDS011;18313;48.518;9.124;2022-12-24T05:52:53;7.72;;;1.80;;
31734;SDS011;18313;48.518;9.124;2022-12-24T05:55:20;9.40;;;1.50;;
31734;SDS011;18313;48.518;9.124;2022-12-24T05:57:47;7.22;;;1.80;;
31734;SDS011;18313;48.518;9.124;2022-12-24T06:00:14;7.18;;;1.70;;
31734;SDS011;18313;48.518;9.124;2022-12-24T06:02:41;4.65;;;1.60;;
31734;SDS011;18313;48.518;9.124;2022-12-24T06:05:09;8.77;;;1.48;;
31734;SDS011;18313;48.518;9.124;2022-12-24T06:07:36;9.27;;;1.88;;
31734;SDS011;18313;48.518;9.124;2022-12-24T06:10:03;7.90;;;1.45;;
31734;SDS011;18313;48.518;9.124;2022-12-24T06:12:31;9.18;;;1.90;;
31734;SDS011;18313;48.518;9.124;2022-12-24T06:14:59;8.63;;;2.10;;
31734;SDS011;18313;48.518;9.124;2022-12-24T06:17:26;9.60;;;1.70;;
31734;SDS011;18313;48.518;9.124;2022-12-24T06:19:53;8.73;;;1.73;;
31734;SDS011;18313;48.518;9.124;2022-12-24T06:22:20;8.68;;;1.55;;
31734;SDS011;18313;48.518;9.124;2022-12-24T06:24:47;14.38;;;2.22;;
31734;SDS011;18313;48.518;9.124;2022-12-24T06:27:14;8.70;;;1.50;;
31734;SDS011;18313;48.518;9.124;2022-12-24T06:29:41;6.78;;;1.38;;
31734;SDS011;18313;48.518;9.124;2022-12-24T06:32:09;11.25;;;1.65;;
31734;SDS011;18313;48.518;9.124;2022-12-24T06:34:36;7.95;;;1.38;;
31734;SDS011;18313;48.518;9.124;2022-12-24T06:37:03;6.35;;;1.42;;
31734;SDS011;18313;48.518;9.124;2022-12-24T06:39:31;9.93;;;2.20;;
31734;SDS011;18313;48.518;9.124;2022-12-24T06:41:58;13.27;;;1.70;;
31734;SDS011;18313;48.518;9.124;2022-12-24T06:44:25;8.88;;;1.33;;
31734;SDS011;18313;48.518;9.124;2022-12-24T06:46:52;8.05;;;1.92;;
31734;SDS011;18313;48.518;9.124;2022-12-24T06:49:20;13.13;;;2.88;;
31734;SDS011;18313;48.518;9.124;2022-12-24T06:51:47;12.57;;;1.75;;
31734;SDS011;18313;48.518;9.124;2022-12-24T06:54:14;10.20;;;2.00;;
31734;SDS011;18313;48.518;9.124;2022-12-24T06:56:41;12.38;;;2.08;;
31734;SDS011;18313;48.518;9.124;2022-12-24T06:59:08;9.35;;;2.50;;
31734;SDS011;18313;48.518;9.124;2022-12-24T07:01:35;15.25;;;3.05;;
31734;SDS011;18313;48.518;9.124;2022-12-24T07:04:03;12.82;;;1.83;;
31734;SDS011;18313;48.518;9.124;2022-12-24T07:06:30;8.90;;;1.95;;
31734;SDS011;18313;48.518;9.124;2022-12-24T07:08:57;13.00;;;2.47;;
31734;SDS011;18313;48.518;9.124;2022-12-24T07:11:24;8.95;;;2.10;;
31734;SDS011;18313;48.518;9.124;2022-12-24T07:13:52;8.40;;;2.55;;
31734;SDS011;18313;48.518;9.124;2022-12-24T07:16:19;12.98;;;1.90;;
31734;SDS011;18313;48.518;9.124;2022-12-24T07:18:47;8.30;;;1.90;;
31734;SDS011;18313;48.518;9.124;2022-12-24T07:21:14;9.07;;;1.58;;
31734;SDS011;18313;48.518;9.124;2022-12-24T07:23:41;12.30;;;1.77;;
31734;SDS011;18313;48.518;9.124;2022-12-24T07:26:09;8.27;;;1.70;;
31734;SDS011;18313;48.518;9.124;2022-12-24T07:28:36;10.45;;;1.90;;
31734;SDS011;18313;48.518;9.124;2022-12-24T07:31:03;8.13;;;1.88;;
31734;SDS011;18313;48.518;9.124;2022-12-24T07:33:30;7.88;;;2.30;;
31734;SDS011;18313;48.518;9.124;2022-12-24T07:35:58;12.00;;;3.50;;
31734;SDS011;18313;48.518;9.124;2022-12-24T07:38:27;11.63;;;2.47;;
31734;SDS011;18313;48.518;9.124;2022-12-24T07:40:55;13.60;;;3.47;;
31734;SDS011;18313;48.518;9.124;2022-12-24T07:43:23;11.15;;;2.53;;
31734;SDS011;18313;48.518;9.124;2022-12-24T07:45:55;12.90;;;2.63;;
31734;SDS011;18313;48.518;9.124;2022-12-24T07:48:24;16.88;;;3.47;;
31734;SDS011;18313;48.518;9.124;2022-12-24T07:50:52;11.25;;;2.20;;
31734;SDS011;18313;48.518;9.124;2022-12-24T07:53:20;15.15;;;2.45;;
31734;SDS011;18313;48.518;9.124;2022-12-24T07:55:47;9.45;;;1.67;;
31734;SDS011;18313;48.518;9.124;2022-12-24T07:58:14;9.50;;;1.80;;
31734;SDS011;18313;48.518;9.124;2022-12-24T08:00:42;9.60;;;2.10;;
31734;SDS011;18313;48.518;9.124;2022-12-24T08:03:13;7.95;;;2.00;;
31734;SDS011;18313;48.518;9.124;2022-12-24T08:05:45;11.93;;;2.15;;
31734;SDS011;18313;48.518;9.124;2022-12-24T08:08:13;12.13;;;2.75;;
31734;SDS011;18313;48.518;9.124;2022-12-24T08:10:41;10.00;;;1.90;;
31734;SDS011;18313;48.518;9.124;2022-12-24T08:13:10;11.23;;;1.60;;
31734;SDS011;18313;48.518;9.124;2022-12-24T08:15:37;10.55;;;2.08;;
31734;SDS011;18313;48.518;9.124;2022-12-24T08:18:04;12.95;;;1.70;;
31734;SDS011;18313;48.518;9.124;2022-12-24T08:20:31;8.48;;;1.45;;
31734;SDS011;18313;48.518;9.124;2022-12-24T08:22:59;9.45;;;1.90;;
31734;SDS011;18313;48.518;9.124;2022-12-24T08:25:26;9.65;;;1.90;;
31734;SDS011;18313;48.518;9.124;2022-12-24T08:27:53;14.57;;;2.05;;
31734;SDS011;18313;48.518;9.124;2022-12-24T08:30:20;11.40;;;2.40;;
31734;SDS011;18313;48.518;9.124;2022-12-24T08:32:47;9.27;;;2.40;;
31734;SDS011;18313;48.518;9.124;2022-12-24T08:35:15;8.20;;;1.98;;
31734;SDS011;18313;48.518;9.124;2022-12-24T08:37:42;12.07;;;2.22;;
31734;SDS011;18313;48.518;9.124;2022-12-24T08:40:09;12.15;;;2.42;;
31734;SDS011;18313;48.518;9.124;2022-12-24T08:42:37;15.25;;;2.28;;
31734;SDS011;18313;48.518;9.124;2022-12-24T08:45:04;16.65;;;2.20;;
31734;SDS011;18313;48.518;9.124;2022-12-24T08:47:33;12.75;;;2.50;;
31734;SDS011;18313;48.518;9.124;2022-12-24T08:50:00;13.63;;;2.05;;
31734;SDS011;18313;48.518;9.124;2022-12-24T08:52:27;12.25;;;2.20;;
31734;SDS011;18313;48.518;9.124;2022-12-24T08:54:54;8.63;;;2.20;;
31734;SDS011;18313;48.518;9.124;2022-12-24T08:57:21;13.50;;;3.15;;
31734;SDS011;18313;48.518;9.124;2022-12-24T08:59:48;11.50;;;2.15;;
31734;SDS011;18313;48.518;9.124;2022-12-24T09:02:15;15.90;;;2.70;;
31734;SDS011;18313;48.518;9.124;2022-12-24T09:04:43;14.65;;;2.67;;
31734;SDS011;18313;48.518;9.124;2022-12-24T09:07:10;9.57;;;1.85;;
31734;SDS011;18313;48.518;9.124;2022-12-24T09:09:37;12.75;;;2.20;;
31734;SDS011;18313;48.518;9.124;2022-12-24T09:12:05;9.15;;;2.00;;
31734;SDS011;18313;48.518;9.124;2022-12-24T09:14:33;11.25;;;2.05;;
31734;SDS011;18313;48.518;9.124;2022-12-24T09:17:00;10.95;;;1.95;;
31734;SDS011;18313;48.518;9.124;2022-12-24T09:19:27;11.98;;;2.20;;
31734;SDS011;18313;48.518;9.124;2022-12-24T09:21:54;14.23;;;2.53;;
31734;SDS011;18313;48.518;9.124;2022-12-24T09:24:21;11.95;;;2.63;;
31734;SDS011;18313;48.518;9.124;2022-12-24T09:26:48;11.45;;;2.20;;
31734;SDS011;18313;48.518;9.124;2022-12-24T09:29:23;10.20;;;2.10;;
31734;SDS011;18313;48.518;9.124;2022-12-24T09:31:50;12.52;;;2.30;;
31734;SDS011;18313;48.518;9.124;2022-12-24T09:34:18;15.15;;;2.60;;
31734;SDS011;18313;48.518;9.124;2022-12-24T09:36:50;11.02;;;2.45;;
31734;SDS011;18313;48.518;9.124;2022-12-24T09:39:19;13.13;;;2.50;;
31734;SDS011;18313;48.518;9.124;2022-12-24T09:41:52;11.38;;;2.67;;
31734;SDS011;18313;48.518;9.124;2022-12-24T09:44:41;16.65;;;2.60;;
31734;SDS011;18313;48.518;9.124;2022-12-24T09:47:20;11.30;;;2.00;;
31734;SDS011;18313;48.518;9.124;2022-12-24T09:49:59;14.70;;;2.60;;
31734;SDS011;18313;48.518;9.124;2022-12-24T09:52:34;17.00;;;3.38;;
31734;SDS011;18313;48.518;9.124;2022-12-24T09:55:13;10.68;;;2.63;;
31734;SDS011;18313;48.518;9.124;2022-12-24T09:57:58;12.93;;;2.38;;
31734;SDS011;18313;48.518;9.124;2022-12-24T10:00:29;10.60;;;2.30;;
31734;SDS011;18313;48.518;9.124;2022-12-24T10:02:59;12.55;;;2.38;;
31734;SDS011;18313;48.518;9.124;2022-12-24T10:05:36;13.50;;;2.47;;
31734;SDS011;18313;48.518;9.124;2022-12-24T10:10:53;9.65;;;2.10;;
31734;SDS011;18313;48.518;9.124;2022-12-24T10:16:19;9.80;;;2.50;;
31734;SDS011;18313;48.518;9.124;2022-12-24T10:19:15;11.23;;;2.88;;
31734;SDS011;18313;48.518;9.124;2022-12-24T10:22:05;13.63;;;2.10;;
31734;SDS011;18313;48.518;9.124;2022-12-24T10:25:00;12.15;;;2.95;;
31734;SDS011;18313;48.518;9.124;2022-12-24T10:27:43;11.02;;;2.55;;
31734;SDS011;18313;48.518;9.124;2022-12-24T10:30:18;10.98;;;2.95;;
31734;SDS011;18313;48.518;9.124;2022-12-24T10:32:51;12.70;;;2.30;;
31734;SDS011;18313;48.518;9.124;2022-12-24T10:35:31;13.38;;;3.28;;
31734;SDS011;18313;48.518;9.124;2022-12-24T10:38:06;12.95;;;2.20;;
31734;SDS011;18313;48.518;9.124;2022-12-24T10:40:53;9.90;;;1.80;;
31734;SDS011;18313;48.518;9.124;2022-12-24T10:43:24;11.68;;;2.00;;
31734;SDS011;18313;48.518;9.124;2022-12-24T10:45:55;12.13;;;3.15;;
31734;SDS011;18313;48.518;9.124;2022-12-24T10:48:27;13.57;;;2.40;;
31734;SDS011;18313;48.518;9.124;2022-12-24T10:51:04;12.90;;;2.08;;
31734;SDS011;18313;48.518;9.124;2022-12-24T10:53:45;12.13;;;2.75;;
31734;SDS011;18313;48.518;9.124;2022-12-24T10:56:18;14.77;;;2.42;;
31734;SDS011;18313;48.518;9.124;2022-12-24T10:58:53;9.35;;;2.25;;
31734;SDS011;18313;48.518;9.124;2022-12-24T11:01:41;15.00;;;2.97;;
31734;SDS011;18313;48.518;9.124;2022-12-24T11:04:14;12.18;;;2.00;;
31734;SDS011;18313;48.518;9.124;2022-12-24T11:06:57;13.05;;;1.80;;
31734;SDS011;18313;48.518;9.124;2022-12-24T11:09:37;14.70;;;2.33;;
31734;SDS011;18313;48.518;9.124;2022-12-24T11:12:16;14.20;;;2.88;;
31734;SDS011;18313;48.518;9.124;2022-12-24T11:14:47;9.10;;;1.90;;
31734;SDS011;18313;48.518;9.124;2022-12-24T11:17:19;11.20;;;2.22;;
31734;SDS011;18313;48.518;9.124;2022-12-24T11:19:48;10.68;;;2.05;;
31734;SDS011;18313;48.518;9.124;2022-12-24T11:22:17;10.85;;;2.05;;
31734;SDS011;18313;48.518;9.124;2022-12-24T11:24:56;13.32;;;2.00;;
31734;SDS011;18313;48.518;9.124;2022-12-24T11:27:28;15.57;;;2.35;;
31734;SDS011;18313;48.518;9.124;2022-12-24T11:30:12;13.15;;;2.17;;
31734;SDS011;18313;48.518;9.124;2022-12-24T11:33:31;13.80;;;1.88;;
31734;SDS011;18313;48.518;9.124;2022-12-24T11:35:44;8.07;;;1.77;;
31734;SDS011;18313;48.518;9.124;2022-12-24T11:38:24;12.00;;;1.95;;
31734;SDS011;18313;48.518;9.124;2022-12-24T11:40:56;9.93;;;1.90;;
31734;SDS011;18313;48.518;9.124;2022-12-24T11:43:38;15.30;;;2.65;;
31734;SDS011;18313;48.518;9.124;2022-12-24T11:46:14;17.05;;;2.30;;
31734;SDS011;18313;48.518;9.124;2022-12-24T11:49:42;11.93;;;1.85;;
31734;SDS011;18313;48.518;9.124;2022-12-24T11:54:53;13.98;;;2.88;;
31734;SDS011;18313;48.518;9.124;2022-12-24T11:57:54;9.55;;;2.08;;
31734;SDS011;18313;48.518;9.124;2022-12-24T12:00:26;15.50;;;2.53;;
31734;SDS011;18313;48.518;9.124;2022-12-24T12:02:54;11.07;;;1.77;;
31734;SDS011;18313;48.518;9.124;2022-12-24T12:05:28;12.20;;;1.90;;
31734;SDS011;18313;48.518;9.124;2022-12-24T12:08:07;13.60;;;2.63;;
31734;SDS011;18313;48.518;9.124;2022-12-24T12:10:46;12.93;;;2.38;;
31734;SDS011;18313;48.518;9.124;2022-12-24T12:13:16;8.68;;;1.95;;
31734;SDS011;18313;48.518;9.124;2022-12-24T12:16:00;10.90;;;1.90;;
31734;SDS011;18313;48.518;9.124;2022-12-24T12:18:40;11.18;;;2.05;;
31734;SDS011;18313;48.518;9.124;2022-12-24T12:21:13;8.88;;;2.00;;
31734;SDS011;18313;48.518;9.124;2022-12-24T12:23:46;13.15;;;2.50;;
31734;SDS011;18313;48.518;9.124;2022-12-24T12:26:21;11.23;;;2.22;;
31734;SDS011;18313;48.518;9.124;2022-12-24T12:28:57;11.00;;;2.25;;
31734;SDS011;18313;48.518;9.124;2022-12-24T12:31:45;12.75;;;2.90;;
31734;SDS011;18313;48.518;9.124;2022-12-24T12:34:34;9.52;;;2.10;;
31734;SDS011;18313;48.518;9.124;2022-12-24T12:37:10;12.57;;;2.20;;
31734;SDS011;18313;48.518;9.124;2022-12-24T12:39:56;11.75;;;2.38;;
31734;SDS011;18313;48.518;9.124;2022-12-24T12:47:51;8.10;;;2.00;;
31734;SDS011;18313;48.518;9.124;2022-12-24T12:53:28;9.35;;;1.60;;
31734;SDS011;18313;48.518;9.124;2022-12-24T12:56:14;9.60;;;1.90;;
31734;SDS011;18313;48.518;9.124;2022-12-24T12:59:01;13.73;;;2.33;;
31734;SDS011;18313;48.518;9.124;2022-12-24T13:01:33;9.50;;;1.90;;
31734;SDS011;18313;48.518;9.124;2022-12-24T13:10:07;14.55;;;2.30;;
31734;SDS011;18313;48.518;9.124;2022-12-24T13:15:39;11.98;;;1.90;;
31734;SDS011;18313;48.518;9.124;2022-12-24T13:18:39;11.55;;;2.10;;
31734;SDS011;18313;48.518;9.124;2022-12-24T13:21:17;7.53;;;1.92;;
31734;SDS011;18313;48.518;9.124;2022-12-24T13:23:48;12.07;;;2.63;;
31734;SDS011;18313;48.518;9.124;2022-12-24T13:26:16;10.45;;;2.45;;
31734;SDS011;18313;48.518;9.124;2022-12-24T13:28:44;10.57;;;2.17;;
31734;SDS011;18313;48.518;9.124;2022-12-24T13:33:46;11.10;;;2.00;;
31734;SDS011;18313;48.518;9.124;2022-12-24T13:36:15;12.80;;;2.20;;
31734;SDS011;18313;48.518;9.124;2022-12-24T13:38:46;12.73;;;2.08;;
31734;SDS011;18313;48.518;9.124;2022-12-24T13:46:45;14.48;;;2.13;;
31734;SDS011;18313;48.518;9.124;2022-12-24T13:49:20;9.20;;;2.33;;
31734;SDS011;18313;48.518;9.124;2022-12-24T13:51:56;8.90;;;2.05;;
31734;SDS011;18313;48.518;9.124;2022-12-24T13:54:46;10.63;;;1.90;;
31734;SDS011;18313;48.518;9.124;2022-12-24T13:57:34;10.80;;;2.00;;
31734;SDS011;18313;48.518;9.124;2022-12-24T14:02:48;9.30;;;2.47;;
31734;SDS011;18313;48.518;9.124;2022-12-24T14:05:36;8.05;;;2.10;;
31734;SDS011;18313;48.518;9.124;2022-12-24T14:08:13;11.73;;;1.92;;
31734;SDS011;18313;48.518;9.124;2022-12-24T14:16:17;12.82;;;2.95;;
31734;SDS011;18313;48.518;9.124;2022-12-24T14:18:48;11.60;;;2.33;;
31734;SDS011;18313;48.518;9.124;2022-12-24T14:21:36;8.63;;;2.03;;
31734;SDS011;18313;48.518;9.124;2022-12-24T14:24:12;11.23;;;2.75;;
31734;SDS011;18313;48.518;9.124;2022-12-24T14:27:11;9.63;;;2.83;;
31734;SDS011;18313;48.518;9.124;2022-12-24T14:32:46;11.85;;;2.95;;
31734;SDS011;18313;48.518;9.124;2022-12-24T14:35:15;9.32;;;2.90;;
31734;SDS011;18313;48.518;9.124;2022-12-24T14:37:51;9.45;;;2.10;;
31734;SDS011;18313;48.518;9.124;2022-12-24T14:40:30;14.90;;;3.78;;
31734;SDS011;18313;48.518;9.124;2022-12-24T14:43:21;10.43;;;3.08;;
31734;SDS011;18313;48.518;9.124;2022-12-24T14:49:40;13.43;;;2.27;;
31734;SDS011;18313;48.518;9.124;2022-12-24T14:52:16;9.73;;;2.13;;
31734;SDS011;18313;48.518;9.124;2022-12-24T15:00:50;6.57;;;1.88;;
31734;SDS011;18313;48.518;9.124;2022-12-24T15:03:21;9.63;;;1.63;;
31734;SDS011;18313;48.518;9.124;2022-12-24T15:05:51;9.55;;;1.75;;
31734;SDS011;18313;48.518;9.124;2022-12-24T15:08:28;10.15;;;2.10;;
31734;SDS011;18313;48.518;9.124;2022-12-24T15:10:59;7.22;;;2.00;;
31734;SDS011;18313;48.518;9.124;2022-12-24T15:13:31;8.52;;;2.03;;
31734;SDS011;18313;48.518;9.124;2022-12-24T15:16:11;8.77;;;2.25;;
31734;SDS011;18313;48.518;9.124;2022-12-24T15:18:45;10.50;;;2.75;;
31734;SDS011;18313;48.518;9.124;2022-12-24T15:21:19;15.15;;;5.05;;
31734;SDS011;18313;48.518;9.124;2022-12-24T15:23:51;27.58;;;12.57;;
31734;SDS011;18313;48.518;9.124;2022-12-24T15:26:22;30.67;;;13.93;;
31734;SDS011;18313;48.518;9.124;2022-12-24T15:28:55;18.40;;;6.47;;
31734;SDS011;18313;48.518;9.124;2022-12-24T15:31:29;9.70;;;2.60;;
31734;SDS011;18313;48.518;9.124;2022-12-24T15:33:56;12.65;;;2.20;;
31734;SDS011;18313;48.518;9.124;2022-12-24T15:36:31;9.00;;;1.88;;
31734;SDS011;18313;48.518;9.124;2022-12-24T15:39:02;6.15;;;1.75;;
31734;SDS011;18313;48.518;9.124;2022-12-24T15:41:35;14.77;;;2.10;;
31734;SDS011;18313;48.518;9.124;2022-12-24T15:44:26;9.32;;;1.80;;
31734;SDS011;18313;48.518;9.124;2022-12-24T15:47:01;10.45;;;2.20;;
31734;SDS011;18313;48.518;9.124;2022-12-24T15:49:30;9.63;;;2.10;;
31734;SDS011;18313;48.518;9.124;2022-12-24T15:52:02;10.88;;;2.50;;
31734;SDS011;18313;48.518;9.124;2022-12-24T15:54:31;7.97;;;1.70;;
31734;SDS011;18313;48.518;9.124;2022-12-24T15:56:58;9.90;;;2.28;;
31734;SDS011;18313;48.518;9.124;2022-12-24T15:59:29;4.93;;;1.95;;
31734;SDS011;18313;48.518;9.124;2022-12-24T16:10:33;8.07;;;1.52;;
31734;SDS011;18313;48.518;9.124;2022-12-24T16:13:19;7.53;;;1.70;;
31734;SDS011;18313;48.518;9.124;2022-12-24T16:15:53;10.57;;;2.30;;
31734;SDS011;18313;48.518;9.124;2022-12-24T16:18:25;17.52;;;5.38;;
31734;SDS011;18313;48.518;9.124;2022-12-24T16:20:56;10.25;;;3.20;;
31734;SDS011;18313;48.518;9.124;2022-12-24T16:23:25;8.00;;;2.50;;